[CLOSED] PG ATC @EGLL London Heathrow

London Heathrow open for the next 30 Minutes or so :)

  • Wind 11 kt from the Southeast

  • Temperature 9°C

  • Visibility 10 km or more

  • Departures and Arrivals RWY 09R

  • Patterns RWY 09L

    EGLL 020320Z AUTO 13011KT 9999 BKN010 09/08 Q1000 TEMPO BKN009

1 Like